Time;durP1;ratioP1;P1;durP2;ratioP2;P2;SDS_P1;SDS_P2;PMS_P1;PMS_P2;Temp;Humidity;BMP_temperature;BMP_pressure;BME280_temperature;BME280_humidity;BME280_pressure;Samples;Min_cycle;Max_cycle;Signal;HPM_P1;HPM_P2
2022/08/16 00:01:25;;;;;;;;;;;24.80;79.50;;;;;;5017647;28;19971;-93
2022/08/16 00:03:52;;;;;;;;;;;24.80;79.50;;;;;;5034257;28;19909;-92
2022/08/16 00:06:17;;;;;;;;;;;24.70;79.50;;;;;;5017607;28;19912;-92
2022/08/16 00:08:43;;;;;;;;;;;24.70;79.80;;;;;;5023941;28;19905;-92
2022/08/16 00:11:10;;;;;;;;;;;24.70;79.80;;;;;;5047870;28;19921;-92
2022/08/16 00:13:35;;;;;;;;;;;24.60;79.80;;;;;;5020449;28;19905;-93
2022/08/16 00:16:01;;;;;;;;;;;24.60;79.80;;;;;;5035344;28;19933;-93
2022/08/16 00:18:26;;;;;;;;;;;24.60;79.80;;;;;;5001238;28;20376;-93
2022/08/16 00:20:52;;;;;;;;;;;24.60;80.60;;;;;;5035163;28;19905;-93
2022/08/16 00:23:29;;;;;;;;;;;24.60;80.00;;;;;;5033561;28;19955;-92
2022/08/16 00:25:57;;;;;;;;;;;24.50;80.30;;;;;;5034067;28;19905;-92
2022/08/16 00:28:23;;;;;;;;;;;24.50;80.40;;;;;;5017684;28;19920;-93
2022/08/16 00:30:49;;;;;;;;;;;24.50;80.40;;;;;;5034714;28;19909;-91
2022/08/16 00:33:14;;;;;;;;;;;24.40;80.50;;;;;;5017294;28;20372;-92
2022/08/16 00:35:40;;;;;;;;;;;24.40;80.60;;;;;;5017541;28;20023;-92
2022/08/16 00:38:06;;;;;;;;;;;24.40;80.80;;;;;;5034758;28;20091;-93
2022/08/16 00:40:37;;;;;;;;;;;24.40;80.90;;;;;;5035296;28;20376;-92
2022/08/16 00:43:07;;;;;;;;;;;24.40;80.80;;;;;;5017358;28;19905;-93
2022/08/16 00:45:39;;;;;;;;;;;24.40;80.90;;;;;;5017339;28;19909;-94
2022/08/16 00:48:06;;;;;;;;;;;24.30;80.90;;;;;;5034789;28;19905;-93
2022/08/16 00:50:35;;;;;;;;;;;24.30;80.80;;;;;;5017465;28;20403;-92
2022/08/16 00:53:01;;;;;;;;;;;24.30;81.00;;;;;;5017199;28;20279;-93
2022/08/16 00:55:30;;;;;;;;;;;24.20;80.90;;;;;;5017220;28;19905;-93
2022/08/16 00:57:56;;;;;;;;;;;24.20;80.90;;;;;;5017650;28;19905;-92
2022/08/16 01:00:26;;;;;;;;;;;24.20;81.10;;;;;;5029176;28;19912;-92
2022/08/16 01:02:52;;;;;;;;;;;24.10;81.10;;;;;;5023883;28;20399;-93
2022/08/16 01:05:21;;;;;;;;;;;24.10;81.40;;;;;;5017413;28;19996;-93
2022/08/16 01:07:47;;;;;;;;;;;24.10;81.60;;;;;;5016810;28;19912;-92
2022/08/16 01:10:13;;;;;;;;;;;24.00;81.60;;;;;;5017418;28;19905;-93
2022/08/16 01:12:38;;;;;;;;;;;24.00;81.80;;;;;;5017042;28;20279;-94
2022/08/16 01:15:06;;;;;;;;;;;24.00;82.00;;;;;;5034352;28;19909;-93
2022/08/16 01:17:33;;;;;;;;;;;24.00;82.00;;;;;;5017235;28;19905;-93
2022/08/16 01:20:01;;;;;;;;;;;23.90;82.10;;;;;;5017493;28;20317;-94
2022/08/16 01:22:34;;;;;;;;;;;23.90;82.20;;;;;;5019442;28;19905;-92
2022/08/16 01:25:03;;;;;;;;;;;23.90;82.20;;;;;;5020980;28;19912;-92
2022/08/16 01:27:33;;;;;;;;;;;23.80;82.40;;;;;;5041685;28;19952;-92
2022/08/16 01:30:02;;;;;;;;;;;23.80;82.40;;;;;;5040376;28;19917;-93
2022/08/16 01:32:34;;;;;;;;;;;23.80;82.60;;;;;;5058536;28;19913;-93
2022/08/16 01:35:04;;;;;;;;;;;23.70;82.50;;;;;;5040949;28;19916;-92
2022/08/16 01:37:36;;;;;;;;;;;23.70;82.80;;;;;;5040332;28;19905;-92
2022/08/16 01:40:03;;;;;;;;;;;23.60;83.50;;;;;;5039006;28;19905;-92
2022/08/16 01:42:29;;;;;;;;;;;23.60;83.50;;;;;;5056668;28;19976;-92
2022/08/16 01:44:54;;;;;;;;;;;23.60;83.50;;;;;;5038846;28;19909;-93
2022/08/16 01:47:20;;;;;;;;;;;23.60;83.60;;;;;;5031364;28;20003;-92
2022/08/16 01:49:45;;;;;;;;;;;23.50;83.60;;;;;;5038406;28;19905;-93
2022/08/16 01:52:14;;;;;;;;;;;23.50;83.70;;;;;;5020292;28;19920;-92
2022/08/16 01:54:39;;;;;;;;;;;23.50;83.90;;;;;;5038285;28;19905;-92
2022/08/16 01:57:06;;;;;;;;;;;23.40;83.90;;;;;;5020302;28;19951;-92
2022/08/16 01:59:32;;;;;;;;;;;23.40;84.00;;;;;;5020162;28;19912;-92
2022/08/16 02:01:59;;;;;;;;;;;23.40;84.10;;;;;;5019403;28;19924;-92
2022/08/16 02:04:28;;;;;;;;;;;23.40;84.20;;;;;;5037602;28;19905;-93
2022/08/16 02:06:53;;;;;;;;;;;23.30;84.30;;;;;;5019871;28;19905;-93
2022/08/16 02:09:20;;;;;;;;;;;23.30;84.50;;;;;;5019018;28;19916;-92
2022/08/16 02:11:47;;;;;;;;;;;23.30;84.70;;;;;;5019553;28;19913;-92
2022/08/16 02:14:15;;;;;;;;;;;23.30;84.80;;;;;;5036636;28;19912;-93
2022/08/16 02:16:43;;;;;;;;;;;23.20;84.80;;;;;;5019486;28;19905;-92
2022/08/16 02:19:09;;;;;;;;;;;23.20;84.80;;;;;;5019231;28;19916;-93
2022/08/16 02:21:35;;;;;;;;;;;23.20;84.80;;;;;;5019380;28;19905;-92
2022/08/16 02:24:01;;;;;;;;;;;23.20;84.90;;;;;;5019335;28;20253;-91
2022/08/16 02:26:34;;;;;;;;;;;23.20;85.10;;;;;;5019519;28;20074;-94
2022/08/16 02:28:59;;;;;;;;;;;23.10;85.20;;;;;;5036852;28;19905;-91
2022/08/16 02:31:25;;;;;;;;;;;23.10;85.30;;;;;;5003431;28;19940;-92
2022/08/16 02:33:50;;;;;;;;;;;23.10;85.40;;;;;;5019097;28;19909;-92
2022/08/16 02:36:16;;;;;;;;;;;23.10;85.40;;;;;;5019000;28;19909;-92
2022/08/16 02:38:49;;;;;;;;;;;23.00;85.40;;;;;;5018904;28;19905;-92
2022/08/16 02:41:15;;;;;;;;;;;23.00;85.60;;;;;;5018920;28;19906;-92
2022/08/16 02:43:40;;;;;;;;;;;23.00;85.80;;;;;;5018898;28;20373;-92
2022/08/16 02:46:07;;;;;;;;;;;23.00;86.00;;;;;;5018769;28;19944;-91
2022/08/16 02:48:32;;;;;;;;;;;23.00;86.00;;;;;;5036429;28;20157;-93
2022/08/16 02:51:02;;;;;;;;;;;22.90;86.00;;;;;;5018991;28;19906;-92
2022/08/16 02:53:31;;;;;;;;;;;22.90;86.10;;;;;;5002320;28;19909;-92
2022/08/16 02:55:57;;;;;;;;;;;22.80;86.10;;;;;;5019265;28;19905;-92
2022/08/16 02:58:23;;;;;;;;;;;22.80;86.30;;;;;;5038580;28;19909;-92
2022/08/16 03:00:53;;;;;;;;;;;22.80;86.40;;;;;;5031823;28;20400;-89
2022/08/16 03:03:21;;;;;;;;;;;22.80;86.60;;;;;;5022363;28;19928;-93
2022/08/16 03:05:46;;;;;;;;;;;22.80;86.60;;;;;;5018698;28;19909;-93
2022/08/16 03:08:12;;;;;;;;;;;22.80;86.80;;;;;;5018194;28;20379;-93
2022/08/16 03:10:41;;;;;;;;;;;22.80;86.90;;;;;;5001799;28;19909;-92
2022/08/16 03:13:07;;;;;;;;;;;22.70;87.00;;;;;;5019050;28;19917;-92
2022/08/16 03:15:33;;;;;;;;;;;22.70;87.10;;;;;;5018470;28;19905;-92
2022/08/16 03:17:58;;;;;;;;;;;22.70;87.30;;;;;;5018655;28;19909;-92
2022/08/16 03:20:24;;;;;;;;;;;22.70;87.30;;;;;;5001249;28;19909;-93
2022/08/16 03:22:52;;;;;;;;;;;22.60;87.50;;;;;;5035725;28;19913;-92
2022/08/16 03:25:17;;;;;;;;;;;22.60;87.90;;;;;;5018191;28;19916;-92
2022/08/16 03:27:43;;;;;;;;;;;22.60;87.80;;;;;;5018378;28;19905;-92
2022/08/16 03:30:14;;;;;;;;;;;22.60;87.90;;;;;;5035721;28;20356;-92
2022/08/16 03:32:43;;;;;;;;;;;22.60;88.00;;;;;;5034615;28;19913;-92
2022/08/16 03:35:08;;;;;;;;;;;22.60;88.30;;;;;;5035471;28;19909;-92
2022/08/16 03:37:34;;;;;;;;;;;22.50;88.90;;;;;;5017451;28;19905;-93
2022/08/16 03:40:00;;;;;;;;;;;22.50;88.40;;;;;;5017982;28;20272;-92
2022/08/16 03:42:26;;;;;;;;;;;22.50;88.70;;;;;;5017639;28;19911;-91
2022/08/16 03:44:51;;;;;;;;;;;22.40;88.60;;;;;;5017551;28;20264;-93
2022/08/16 03:47:17;;;;;;;;;;;22.40;88.60;;;;;;5017585;28;19905;-93
2022/08/16 03:49:43;;;;;;;;;;;22.40;88.60;;;;;;5017642;28;19932;-94
2022/08/16 03:52:11;;;;;;;;;;;22.40;88.50;;;;;;5017857;28;19940;-92
2022/08/16 03:54:36;;;;;;;;;;;22.30;88.40;;;;;;5017536;28;20364;-92
2022/08/16 03:57:02;;;;;;;;;;;22.30;88.40;;;;;;5017795;28;19909;-92
2022/08/16 03:59:28;;;;;;;;;;;22.30;88.70;;;;;;5001677;28;19915;-92
2022/08/16 04:01:54;;;;;;;;;;;22.20;88.70;;;;;;5034831;28;19920;-92
2022/08/16 04:04:22;;;;;;;;;;;22.20;88.70;;;;;;5017549;28;20035;-94
2022/08/16 04:06:47;;;;;;;;;;;22.20;88.80;;;;;;5017565;28;19905;-92
2022/08/16 04:09:16;;;;;;;;;;;22.20;88.90;;;;;;5035001;28;19912;-92
2022/08/16 04:11:41;;;;;;;;;;;22.20;88.90;;;;;;5001588;28;19958;-92
2022/08/16 04:14:07;;;;;;;;;;;22.10;89.00;;;;;;5017640;28;19905;-94
2022/08/16 04:16:32;;;;;;;;;;;22.10;89.20;;;;;;5035143;28;19905;-91
2022/08/16 04:18:59;;;;;;;;;;;22.10;89.20;;;;;;5017488;28;19909;-92
2022/08/16 04:21:30;;;;;;;;;;;22.10;89.50;;;;;;5017554;28;19915;-92
2022/08/16 04:23:56;;;;;;;;;;;22.10;89.50;;;;;;5034890;28;19905;-92
2022/08/16 04:26:24;;;;;;;;;;;22.00;89.50;;;;;;5033883;28;19909;-91
2022/08/16 04:28:52;;;;;;;;;;;22.00;89.70;;;;;;5017170;28;20364;-92
2022/08/16 04:31:18;;;;;;;;;;;22.00;89.70;;;;;;5033860;28;19963;-92
2022/08/16 04:33:44;;;;;;;;;;;21.90;89.90;;;;;;5016957;28;19905;-92
2022/08/16 04:36:10;;;;;;;;;;;21.90;90.10;;;;;;5016870;28;20372;-92
2022/08/16 04:38:38;;;;;;;;;;;21.90;90.20;;;;;;5000991;28;19948;-91
2022/08/16 04:41:04;;;;;;;;;;;21.90;90.30;;;;;;5017202;28;19905;-91
2022/08/16 04:43:29;;;;;;;;;;;21.90;90.40;;;;;;5016992;28;20268;-92
2022/08/16 04:45:55;;;;;;;;;;;21.90;90.50;;;;;;5017216;28;19905;-92
2022/08/16 04:48:20;;;;;;;;;;;21.80;90.60;;;;;;5000613;28;19909;-92
2022/08/16 04:50:51;;;;;;;;;;;21.80;90.60;;;;;;5016863;28;19911;-94
2022/08/16 04:53:17;;;;;;;;;;;21.80;90.70;;;;;;5018455;28;20000;-92
2022/08/16 04:55:43;;;;;;;;;;;21.80;90.80;;;;;;5029673;28;19928;-92
2022/08/16 04:58:09;;;;;;;;;;;21.80;90.90;;;;;;5022316;28;19909;-92
2022/08/16 05:00:34;;;;;;;;;;;21.90;91.10;;;;;;5004896;28;19975;-92
2022/08/16 05:03:03;;;;;;;;;;;21.80;91.10;;;;;;5021092;28;19924;-92
2022/08/16 05:05:31;;;;;;;;;;;21.80;91.30;;;;;;5020532;28;20257;-93
2022/08/16 05:07:57;;;;;;;;;;;21.80;91.40;;;;;;5038721;28;20388;-93
2022/08/16 05:10:25;;;;;;;;;;;21.80;91.50;;;;;;5021455;28;19913;-93
2022/08/16 05:13:09;;;;;;;;;;;21.80;91.60;;;;;;5027106;28;19923;-92
2022/08/16 05:15:35;;;;;;;;;;;21.80;91.60;;;;;;5041522;28;19895;-91
2022/08/16 05:18:02;;;;;;;;;;;21.80;91.70;;;;;;5043430;28;19911;-92
2022/08/16 05:20:28;;;;;;;;;;;21.80;91.80;;;;;;5044212;28;19901;-92
2022/08/16 05:22:53;;;;;;;;;;;21.80;91.80;;;;;;5040018;28;19909;-94
2022/08/16 05:25:19;;;;;;;;;;;21.80;91.90;;;;;;5040990;28;19909;-92
2022/08/16 05:27:44;;;;;;;;;;;21.80;91.80;;;;;;5043638;28;19909;-93
2022/08/16 05:30:14;;;;;;;;;;;21.70;91.80;;;;;;5036956;28;19936;-92
2022/08/16 05:32:40;;;;;;;;;;;21.80;92.00;;;;;;5021227;28;19917;-92
2022/08/16 05:35:07;;;;;;;;;;;21.70;92.00;;;;;;5020810;28;20270;-91
2022/08/16 05:37:34;;;;;;;;;;;21.80;92.10;;;;;;5020423;28;19913;-92
2022/08/16 05:40:04;;;;;;;;;;;21.80;92.20;;;;;;5020314;28;19963;-93
2022/08/16 05:42:30;;;;;;;;;;;21.80;92.30;;;;;;5041265;28;19920;-93
2022/08/16 05:44:55;;;;;;;;;;;21.80;92.40;;;;;;5021970;28;19905;-92
2022/08/16 05:47:24;;;;;;;;;;;21.70;92.40;;;;;;5022307;28;19905;-93
2022/08/16 05:49:50;;;;;;;;;;;21.80;92.40;;;;;;5016936;28;19968;-91
2022/08/16 05:52:15;;;;;;;;;;;21.80;92.50;;;;;;5026020;28;20367;-92
2022/08/16 05:54:42;;;;;;;;;;;21.80;92.40;;;;;;5021917;28;19905;-92
2022/08/16 05:57:10;;;;;;;;;;;21.80;92.60;;;;;;5020664;28;19932;-93
2022/08/16 05:59:35;;;;;;;;;;;21.80;92.60;;;;;;5021600;28;19905;-93
2022/08/16 06:02:02;;;;;;;;;;;21.80;92.70;;;;;;5021386;28;19955;-92
2022/08/16 06:04:28;;;;;;;;;;;21.80;92.80;;;;;;5037219;28;19928;-93
2022/08/16 06:06:56;;;;;;;;;;;21.70;92.80;;;;;;5003590;28;20375;-93
2022/08/16 06:09:41;;;;;;;;;;;21.80;92.90;;;;;;5044401;28;19893;-96
2022/08/16 06:12:34;;;;;;;;;;;21.70;92.90;;;;;;5035740;28;19909;-96
2022/08/16 06:15:02;;;;;;;;;;;21.80;93.20;;;;;;5050108;23;19920;-86
2022/08/16 06:17:28;;;;;;;;;;;21.80;93.40;;;;;;5049125;28;19908;-85
2022/08/16 06:19:53;;;;;;;;;;;21.70;93.30;;;;;;5034594;28;20393;-86
2022/08/16 06:22:19;;;;;;;;;;;21.80;93.30;;;;;;5067246;28;19904;-86
2022/08/16 06:24:45;;;;;;;;;;;21.70;93.40;;;;;;5052442;28;19909;-86
2022/08/16 06:27:10;;;;;;;;;;;21.80;93.50;;;;;;5051617;28;20301;-86
2022/08/16 06:29:36;;;;;;;;;;;21.80;93.40;;;;;;5055631;28;19915;-86
2022/08/16 06:32:01;;;;;;;;;;;21.80;93.30;;;;;;5054595;28;19920;-86
2022/08/16 06:34:27;;;;;;;;;;;21.90;93.30;;;;;;5040555;28;19909;-86
2022/08/16 06:36:53;;;;;;;;;;;21.90;93.30;;;;;;5050840;28;20030;-86
2022/08/16 06:39:18;;;;;;;;;;;22.00;93.30;;;;;;5037731;28;19947;-86
2022/08/16 06:41:44;;;;;;;;;;;22.00;93.30;;;;;;5036866;28;19908;-86
2022/08/16 06:44:09;;;;;;;;;;;22.00;93.20;;;;;;5039171;28;19916;-86
2022/08/16 06:46:36;;;;;;;;;;;22.10;93.20;;;;;;5040726;28;19908;-86
2022/08/16 06:49:07;;;;;;;;;;;22.10;93.00;;;;;;5072351;28;19913;-86
2022/08/16 06:51:33;;;;;;;;;;;22.10;93.00;;;;;;5057286;28;19908;-86
2022/08/16 06:54:00;;;;;;;;;;;22.10;92.90;;;;;;5057333;28;19905;-86
2022/08/16 06:56:25;;;;;;;;;;;22.20;93.00;;;;;;5052768;28;19995;-86
2022/08/16 06:58:51;;;;;;;;;;;22.20;92.90;;;;;;5040612;28;20385;-87
2022/08/16 07:01:17;;;;;;;;;;;22.30;92.90;;;;;;5060015;28;20346;-86
2022/08/16 07:03:43;;;;;;;;;;;22.30;92.90;;;;;;5043954;28;20013;-86
2022/08/16 07:06:09;;;;;;;;;;;22.40;92.90;;;;;;5037066;28;19909;-87
2022/08/16 07:08:36;;;;;;;;;;;22.40;92.80;;;;;;5053621;28;19995;-86
2022/08/16 07:11:01;;;;;;;;;;;22.50;92.80;;;;;;5020590;28;20267;-86
2022/08/16 07:13:30;;;;;;;;;;;22.50;92.80;;;;;;5037283;28;19960;-86
2022/08/16 07:15:58;;;;;;;;;;;22.60;92.80;;;;;;5036412;28;19912;-86
2022/08/16 07:18:24;;;;;;;;;;;22.60;92.80;;;;;;5033618;28;19930;-85
2022/08/16 07:20:50;;;;;;;;;;;22.70;92.80;;;;;;5033425;28;19991;-86
2022/08/16 07:23:15;;;;;;;;;;;22.80;92.80;;;;;;5016770;28;19913;-86
2022/08/16 07:25:41;;;;;;;;;;;22.80;92.70;;;;;;5019601;28;20329;-86
2022/08/16 07:28:07;;;;;;;;;;;22.90;92.50;;;;;;5033597;28;19905;-86
2022/08/16 07:30:33;;;;;;;;;;;22.90;92.50;;;;;;5013403;28;19909;-86
2022/08/16 07:32:58;;;;;;;;;;;22.90;92.30;;;;;;5013593;28;19964;-86
2022/08/16 07:35:24;;;;;;;;;;;23.00;91.80;;;;;;5015762;28;20351;-86
2022/08/16 07:37:50;;;;;;;;;;;23.10;91.80;;;;;;5013854;28;19916;-86
2022/08/16 07:40:16;;;;;;;;;;;23.10;91.60;;;;;;5030084;28;19909;-86
2022/08/16 07:42:41;;;;;;;;;;;23.20;91.40;;;;;;5020654;28;19959;-86
2022/08/16 07:45:08;;;;;;;;;;;23.30;91.30;;;;;;5013358;28;20008;-86
2022/08/16 07:47:33;;;;;;;;;;;23.30;91.20;;;;;;5030716;28;20401;-86
2022/08/16 07:50:00;;;;;;;;;;;23.40;91.10;;;;;;5016596;28;19909;-86
2022/08/16 07:52:25;;;;;;;;;;;23.40;91.20;;;;;;5034034;28;19916;-86
2022/08/16 07:54:51;;;;;;;;;;;23.50;90.80;;;;;;5008705;28;20290;-87
2022/08/16 07:57:16;;;;;;;;;;;23.60;90.90;;;;;;4996980;28;19916;-86
2022/08/16 07:59:45;;;;;;;;;;;23.70;90.90;;;;;;5019087;28;20004;-86
2022/08/16 08:02:11;;;;;;;;;;;23.80;90.50;;;;;;5016789;28;19963;-86
2022/08/16 08:04:37;;;;;;;;;;;23.80;90.40;;;;;;5016454;28;19909;-88
2022/08/16 08:07:02;;;;;;;;;;;23.90;90.20;;;;;;5019552;28;19959;-88
2022/08/16 08:09:28;;;;;;;;;;;24.00;89.60;;;;;;5016422;28;19944;-88
2022/08/16 08:11:54;;;;;;;;;;;24.10;89.20;;;;;;5019138;28;19909;-87
2022/08/16 08:14:20;;;;;;;;;;;24.10;88.70;;;;;;5011983;28;19935;-87
2022/08/16 08:16:45;;;;;;;;;;;24.20;87.10;;;;;;5052810;28;19912;-87
2022/08/16 08:19:11;;;;;;;;;;;24.20;84.90;;;;;;5057260;28;19919;-87
2022/08/16 08:21:39;;;;;;;;;;;24.30;86.10;;;;;;5048032;28;19908;-86
2022/08/16 08:24:06;;;;;;;;;;;24.40;86.00;;;;;;5073645;28;19938;-87
2022/08/16 08:26:32;;;;;;;;;;;24.50;85.30;;;;;;5051343;28;19962;-87
2022/08/16 08:28:58;;;;;;;;;;;24.50;85.10;;;;;;5075307;28;20246;-87
2022/08/16 08:31:24;;;;;;;;;;;24.60;85.30;;;;;;5056330;28;20404;-87
2022/08/16 08:33:50;;;;;;;;;;;24.70;85.10;;;;;;5056627;28;19911;-87
2022/08/16 08:36:19;;;;;;;;;;;24.80;85.20;;;;;;5023197;28;19909;-87
2022/08/16 08:38:45;;;;;;;;;;;24.90;84.80;;;;;;5055071;28;19905;-89
2022/08/16 08:41:10;;;;;;;;;;;25.00;84.00;;;;;;5043195;28;20373;-88
2022/08/16 08:43:36;;;;;;;;;;;25.00;84.20;;;;;;5059566;28;19905;-84
2022/08/16 08:46:01;;;;;;;;;;;25.10;83.80;;;;;;5059339;28;19912;-85
2022/08/16 08:48:27;;;;;;;;;;;25.20;83.30;;;;;;5076533;28;19953;-84
2022/08/16 08:50:53;;;;;;;;;;;25.30;82.90;;;;;;5042556;28;19912;-84
2022/08/16 08:53:18;;;;;;;;;;;25.40;83.10;;;;;;5058943;28;19913;-86
2022/08/16 08:55:48;;;;;;;;;;;25.40;83.30;;;;;;5053010;28;19948;-84
2022/08/16 08:58:14;;;;;;;;;;;25.50;83.10;;;;;;5029183;28;19909;-85
2022/08/16 09:00:39;;;;;;;;;;;25.60;82.70;;;;;;5077208;28;19912;-85
2022/08/16 09:03:05;;;;;;;;;;;25.70;82.40;;;;;;5077225;28;20357;-85
2022/08/16 09:05:30;;;;;;;;;;;25.80;82.40;;;;;;5053372;28;20376;-85
2022/08/16 09:07:56;;;;;;;;;;;25.80;82.50;;;;;;5050750;28;19904;-85
2022/08/16 09:10:21;;;;;;;;;;;25.90;81.80;;;;;;5058986;28;19991;-85
2022/08/16 09:12:47;;;;;;;;;;;26.00;81.70;;;;;;5042386;28;20007;-85
2022/08/16 09:15:14;;;;;;;;;;;26.10;81.40;;;;;;5058224;28;19919;-85
2022/08/16 09:17:58;;;;;;;;;;;26.10;81.60;;;;;;5067662;28;19905;-86
2022/08/16 09:20:25;;;;;;;;;;;26.20;81.60;;;;;;5057905;28;19931;-85
2022/08/16 09:22:50;;;;;;;;;;;26.30;81.10;;;;;;5057103;28;19908;-85
2022/08/16 09:25:16;;;;;;;;;;;26.40;80.10;;;;;;5061811;28;20242;-86
2022/08/16 09:27:42;;;;;;;;;;;26.50;80.20;;;;;;5092791;28;19908;-85
2022/08/16 09:30:08;;;;;;;;;;;26.50;80.20;;;;;;5051486;28;20408;-87
2022/08/16 09:32:34;;;;;;;;;;;26.60;80.30;;;;;;5068564;28;19947;-85
2022/08/16 09:35:00;;;;;;;;;;;26.70;80.20;;;;;;5067837;28;19908;-85
2022/08/16 09:37:26;;;;;;;;;;;26.70;80.20;;;;;;5049892;28;19912;-86
2022/08/16 09:40:11;;;;;;;;;;;26.80;79.10;;;;;;5072342;28;19946;-88
2022/08/16 09:42:36;;;;;;;;;;;26.90;78.40;;;;;;5053389;28;19924;-87
2022/08/16 09:45:03;;;;;;;;;;;26.90;77.10;;;;;;5088836;28;19959;-88
2022/08/16 09:47:28;;;;;;;;;;;27.00;77.10;;;;;;5058407;28;19908;-87
2022/08/16 09:49:54;;;;;;;;;;;27.00;76.80;;;;;;5033468;28;19909;-87
2022/08/16 09:52:22;;;;;;;;;;;27.10;77.40;;;;;;5060123;28;19919;-89
2022/08/16 09:54:48;;;;;;;;;;;27.10;77.10;;;;;;5029236;28;19930;-88
2022/08/16 09:57:13;;;;;;;;;;;27.20;77.00;;;;;;5068852;28;19999;-89
2022/08/16 09:59:39;;;;;;;;;;;27.30;76.80;;;;;;5074881;28;19979;-88
2022/08/16 10:02:05;;;;;;;;;;;27.30;76.00;;;;;;5070726;28;19912;-89
2022/08/16 10:04:31;;;;;;;;;;;27.40;76.60;;;;;;5050932;28;20361;-88
2022/08/16 10:06:57;;;;;;;;;;;27.50;76.30;;;;;;5041491;28;19923;-88
2022/08/16 10:09:23;;;;;;;;;;;27.50;75.60;;;;;;5077229;28;19904;-88
2022/08/16 10:14:33;;;;;;;;;;;27.70;75.20;;;;;;5066690;28;19919;-86
2022/08/16 10:17:00;;;;;;;;;;;27.70;75.50;;;;;;5067328;28;19905;-87
2022/08/16 10:19:27;;;;;;;;;;;27.80;74.70;;;;;;5057896;28;19904;-87
2022/08/16 10:21:53;;;;;;;;;;;27.90;75.20;;;;;;5060432;28;19908;-87
2022/08/16 10:24:19;;;;;;;;;;;27.90;74.40;;;;;;5054283;28;19909;-87
2022/08/16 10:26:49;;;;;;;;;;;28.00;73.90;;;;;;5061747;28;20377;-88
2022/08/16 10:29:15;;;;;;;;;;;28.10;74.20;;;;;;5079650;28;19908;-88
2022/08/16 10:31:40;;;;;;;;;;;28.10;74.30;;;;;;5044530;28;20417;-87
2022/08/16 10:34:06;;;;;;;;;;;28.20;72.40;;;;;;5054968;28;19952;-87
2022/08/16 10:36:32;;;;;;;;;;;28.30;73.10;;;;;;5072784;28;19908;-87
2022/08/16 10:38:57;;;;;;;;;;;28.30;73.20;;;;;;5041726;28;19916;-88
2022/08/16 10:41:23;;;;;;;;;;;28.40;73.40;;;;;;5049875;28;19948;-87
2022/08/16 10:43:49;;;;;;;;;;;28.40;72.40;;;;;;5041546;28;19915;-87
2022/08/16 10:46:14;;;;;;;;;;;28.50;72.30;;;;;;5065596;28;19905;-87
2022/08/16 10:48:41;;;;;;;;;;;28.50;71.80;;;;;;5038188;28;20353;-87
2022/08/16 10:51:08;;;;;;;;;;;28.60;71.40;;;;;;5061522;28;19920;-87
2022/08/16 10:53:34;;;;;;;;;;;28.60;71.20;;;;;;5050903;28;19942;-87
2022/08/16 10:56:00;;;;;;;;;;;28.70;71.80;;;;;;5070061;28;19915;-87
2022/08/16 10:58:26;;;;;;;;;;;28.70;71.40;;;;;;5077558;28;20338;-86
2022/08/16 11:00:52;;;;;;;;;;;28.80;71.30;;;;;;5043075;28;20006;-86
2022/08/16 11:03:18;;;;;;;;;;;28.90;70.80;;;;;;5060474;28;19943;-85
2022/08/16 11:05:45;;;;;;;;;;;28.90;69.40;;;;;;5060558;28;19904;-87
2022/08/16 11:08:10;;;;;;;;;;;29.00;69.70;;;;;;5056992;28;19904;-86
2022/08/16 11:10:38;;;;;;;;;;;29.00;69.90;;;;;;5056778;28;19911;-87
2022/08/16 11:13:05;;;;;;;;;;;29.10;69.20;;;;;;5056645;28;20409;-87
2022/08/16 11:15:31;;;;;;;;;;;29.20;69.60;;;;;;5056663;28;19923;-88
2022/08/16 11:17:57;;;;;;;;;;;29.20;69.50;;;;;;5054890;28;19905;-88
2022/08/16 11:20:23;;;;;;;;;;;29.30;66.50;;;;;;5059048;28;19962;-89
2022/08/16 11:22:49;;;;;;;;;;;29.30;67.60;;;;;;5052272;28;20345;-88
2022/08/16 11:25:16;;;;;;;;;;;29.30;68.00;;;;;;5044608;28;19934;-87
2022/08/16 11:27:42;;;;;;;;;;;29.40;67.60;;;;;;5058615;28;19915;-88
2022/08/16 11:30:08;;;;;;;;;;;29.40;67.60;;;;;;5076151;28;19905;-85
2022/08/16 11:32:34;;;;;;;;;;;29.50;67.80;;;;;;5058276;28;19916;-87
2022/08/16 11:35:01;;;;;;;;;;;29.50;67.90;;;;;;5058797;28;19905;-86
2022/08/16 11:37:26;;;;;;;;;;;29.50;67.90;;;;;;5057851;28;19911;-87
2022/08/16 11:39:55;;;;;;;;;;;29.60;67.80;;;;;;5049771;28;19913;-87
2022/08/16 11:42:20;;;;;;;;;;;29.70;68.20;;;;;;5067470;28;19915;-87
2022/08/16 11:44:46;;;;;;;;;;;29.70;67.90;;;;;;5064725;28;19908;-89
2022/08/16 11:47:12;;;;;;;;;;;29.80;67.70;;;;;;5040092;28;19920;-88
2022/08/16 11:49:37;;;;;;;;;;;29.90;67.50;;;;;;5068970;28;19904;-88
2022/08/16 11:52:03;;;;;;;;;;;29.90;67.40;;;;;;5047179;28;19920;-88
2022/08/16 11:54:29;;;;;;;;;;;30.00;67.50;;;;;;5057671;28;19934;-88
2022/08/16 11:56:55;;;;;;;;;;;30.10;67.40;;;;;;5033993;28;19942;-88
2022/08/16 11:59:22;;;;;;;;;;;30.20;67.30;;;;;;5049940;28;19911;-88
2022/08/16 12:01:47;;;;;;;;;;;30.20;67.30;;;;;;5039905;28;19915;-88
2022/08/16 12:04:13;;;;;;;;;;;30.30;67.50;;;;;;5056420;28;19904;-87
2022/08/16 12:06:38;;;;;;;;;;;30.40;67.20;;;;;;5038975;28;20273;-87
2022/08/16 12:09:04;;;;;;;;;;;30.50;66.80;;;;;;5047640;28;19954;-87
2022/08/16 12:11:30;;;;;;;;;;;30.50;66.50;;;;;;5051405;28;19914;-88
2022/08/16 12:13:56;;;;;;;;;;;30.60;66.50;;;;;;5056199;28;19912;-88
2022/08/16 12:16:21;;;;;;;;;;;30.60;66.40;;;;;;5058842;28;19916;-89
2022/08/16 12:18:47;;;;;;;;;;;30.70;66.20;;;;;;5060052;28;19905;-88
2022/08/16 12:21:13;;;;;;;;;;;30.70;65.60;;;;;;5057355;28;19909;-88
2022/08/16 12:23:38;;;;;;;;;;;30.70;65.00;;;;;;5047834;28;19954;-88
2022/08/16 12:26:04;;;;;;;;;;;30.70;64.90;;;;;;5054318;28;19908;-88
2022/08/16 12:28:31;;;;;;;;;;;30.70;64.70;;;;;;5064594;28;19904;-85
2022/08/16 12:30:57;;;;;;;;;;;30.70;63.30;;;;;;5055892;28;19990;-86
2022/08/16 12:33:23;;;;;;;;;;;30.80;63.90;;;;;;5036046;28;20036;-85
2022/08/16 12:35:48;;;;;;;;;;;30.70;64.20;;;;;;5055919;28;19915;-85
2022/08/16 12:38:15;;;;;;;;;;;30.70;64.10;;;;;;5074084;28;20303;-85
2022/08/16 12:40:42;;;;;;;;;;;30.70;64.10;;;;;;5039659;28;19952;-85
2022/08/16 12:43:09;;;;;;;;;;;30.70;63.80;;;;;;5036033;28;20271;-85
2022/08/16 12:45:37;;;;;;;;;;;30.70;63.60;;;;;;5062224;28;19905;-85
2022/08/16 12:50:51;;;;;;;;;;;30.70;64.00;;;;;;5060267;28;20373;-85
2022/08/16 12:53:18;;;;;;;;;;;30.70;63.80;;;;;;5073947;28;19912;-85
2022/08/16 12:55:45;;;;;;;;;;;30.70;64.60;;;;;;5055960;28;20011;-85
2022/08/16 12:58:12;;;;;;;;;;;30.70;64.00;;;;;;5055702;28;19905;-86
2022/08/16 13:00:38;;;;;;;;;;;30.80;64.30;;;;;;5073369;28;19919;-85
2022/08/16 13:03:04;;;;;;;;;;;30.80;64.20;;;;;;5050935;28;19911;-85
2022/08/16 13:05:30;;;;;;;;;;;30.80;64.60;;;;;;5035546;28;19905;-86
2022/08/16 13:07:57;;;;;;;;;;;30.90;65.20;;;;;;5037995;28;19905;-85
2022/08/16 13:10:24;;;;;;;;;;;31.00;65.30;;;;;;5055212;28;19912;-85
2022/08/16 13:12:51;;;;;;;;;;;31.00;65.60;;;;;;5054979;28;19957;-86
2022/08/16 13:15:19;;;;;;;;;;;31.00;65.20;;;;;;5031338;28;19916;-84
2022/08/16 13:17:44;;;;;;;;;;;31.20;65.30;;;;;;5036459;28;19946;-86
2022/08/16 13:20:13;;;;;;;;;;;31.20;64.70;;;;;;5044301;28;19955;-86
2022/08/16 13:22:42;;;;;;;;;;;31.30;64.90;;;;;;5058156;28;19904;-85
2022/08/16 13:25:23;;;;;;;;;;;31.40;64.30;;;;;;5071319;28;19954;-85
2022/08/16 13:27:49;;;;;;;;;;;31.40;64.00;;;;;;5060590;28;19915;-86
2022/08/16 13:30:15;;;;;;;;;;;31.50;63.60;;;;;;5045948;28;19995;-86
2022/08/16 13:33:14;;;;;;;;;;;31.50;63.70;;;;;;5045425;28;20019;-85
2022/08/16 13:35:41;;;;;;;;;;;31.60;64.00;;;;;;5054525;28;19959;-86
2022/08/16 13:38:06;;;;;;;;;;;31.60;63.70;;;;;;5071650;28;19918;-85
2022/08/16 13:40:32;;;;;;;;;;;31.70;63.70;;;;;;5059114;28;19916;-88
2022/08/16 13:42:58;;;;;;;;;;;31.70;63.60;;;;;;5060142;28;19908;-87
2022/08/16 13:45:24;;;;;;;;;;;31.80;63.60;;;;;;5059463;28;19908;-87
2022/08/16 13:47:50;;;;;;;;;;;31.80;63.40;;;;;;5043194;28;19909;-86
2022/08/16 13:50:15;;;;;;;;;;;31.90;63.00;;;;;;5058627;28;19954;-86
2022/08/16 13:52:41;;;;;;;;;;;31.90;62.50;;;;;;5099699;22;19920;-87
2022/08/16 13:55:07;;;;;;;;;;;31.90;62.20;;;;;;5046752;28;19909;-87
2022/08/16 13:57:33;;;;;;;;;;;31.90;61.80;;;;;;5051940;28;19904;-86
2022/08/16 13:59:58;;;;;;;;;;;31.90;62.10;;;;;;5081711;28;19991;-86
2022/08/16 14:02:24;;;;;;;;;;;31.90;62.00;;;;;;5049902;28;19912;-86
2022/08/16 14:04:49;;;;;;;;;;;31.90;61.70;;;;;;5027357;28;19935;-87
2022/08/16 14:07:15;;;;;;;;;;;31.90;61.90;;;;;;5067502;28;19915;-87
2022/08/16 14:09:41;;;;;;;;;;;31.90;62.60;;;;;;5077641;28;19930;-86
2022/08/16 14:12:19;;;;;;;;;;;31.90;62.60;;;;;;5054268;28;19912;-87
2022/08/16 14:14:45;;;;;;;;;;;31.90;61.40;;;;;;5072393;28;20316;-86
2022/08/16 14:17:10;;;;;;;;;;;31.90;60.90;;;;;;5047689;28;20287;-86
2022/08/16 14:19:36;;;;;;;;;;;31.90;60.20;;;;;;5034292;28;19908;-86